createdAt,value
2022-11-20T00:00:19.022Z,-6.10
2022-11-20T00:05:21.887Z,-6.27
2022-11-20T00:10:23.543Z,-6.16
2022-11-20T00:15:25.800Z,-6.39
2022-11-20T00:20:27.460Z,-6.00
2022-11-20T00:25:29.117Z,-6.19
2022-11-20T00:30:30.776Z,-5.87
2022-11-20T00:35:32.461Z,-6.27
2022-11-20T00:40:34.120Z,-6.16
2022-11-20T00:45:35.772Z,-5.93
2022-11-20T00:50:37.506Z,-6.03
2022-11-20T00:55:39.249Z,-6.52
2022-11-20T01:00:40.986Z,-6.55
2022-11-20T01:05:42.709Z,-6.22
2022-11-20T01:10:44.373Z,-6.05
2022-11-20T01:15:46.020Z,-6.17
2022-11-20T01:20:48.211Z,-6.48
2022-11-20T01:25:49.865Z,-6.30
2022-11-20T01:30:51.780Z,-6.21
2022-11-20T01:35:54.017Z,-6.01
2022-11-20T01:40:56.804Z,-5.95
2022-11-20T01:46:14.184Z,-6.43
2022-11-20T01:51:39.130Z,-6.40
2022-11-20T01:56:43.880Z,-6.57
2022-11-20T02:01:45.657Z,-6.67
2022-11-20T02:06:52.985Z,-6.64
2022-11-20T02:11:55.923Z,-6.61
2022-11-20T02:16:57.635Z,-6.57
2022-11-20T02:22:14.932Z,-6.39
2022-11-20T02:27:17.997Z,-6.60
2022-11-20T02:32:33.762Z,-6.64
2022-11-20T02:37:38.246Z,-6.70
2022-11-20T02:42:39.927Z,-6.81
2022-11-20T02:47:41.581Z,-6.69
2022-11-20T02:52:43.449Z,-6.96
2022-11-20T02:57:45.143Z,-6.95
2022-11-20T03:02:47.176Z,-6.86
2022-11-20T03:07:48.834Z,-6.95
2022-11-20T03:12:56.297Z,-7.08
2022-11-20T03:17:57.994Z,-6.96
2022-11-20T03:22:59.731Z,-6.77
2022-11-20T03:28:01.410Z,-6.78
2022-11-20T03:33:03.159Z,-6.75
2022-11-20T03:38:04.818Z,-6.61
2022-11-20T03:43:06.484Z,-6.68
2022-11-20T03:48:08.151Z,-6.94
2022-11-20T03:53:09.807Z,-6.88
2022-11-20T03:58:11.611Z,-6.90
2022-11-20T04:03:13.285Z,-6.85
2022-11-20T04:08:14.971Z,-7.11
2022-11-20T04:13:16.627Z,-7.03
2022-11-20T04:18:18.300Z,-6.95
2022-11-20T04:23:22.386Z,-7.08
2022-11-20T04:28:27.508Z,-7.29
2022-11-20T04:33:33.887Z,-7.34
2022-11-20T04:38:36.052Z,-7.03
2022-11-20T04:43:37.732Z,-7.13
2022-11-20T04:48:39.404Z,-7.21
2022-11-20T04:53:41.443Z,-7.50
2022-11-20T04:58:43.246Z,-7.52
2022-11-20T05:03:45.777Z,-7.41
2022-11-20T05:08:47.507Z,-7.38
2022-11-20T05:13:50.912Z,-7.18
2022-11-20T05:18:54.324Z,-7.41
2022-11-20T05:23:55.976Z,-7.38
2022-11-20T05:28:57.843Z,-7.41
2022-11-20T05:33:59.543Z,-7.38
2022-11-20T05:39:01.901Z,-7.45
2022-11-20T05:44:04.207Z,-7.60
2022-11-20T05:49:05.884Z,-7.57
2022-11-20T05:54:07.578Z,-7.52
2022-11-20T05:59:09.311Z,-7.42
2022-11-20T06:04:10.996Z,-7.38
2022-11-20T06:09:12.692Z,-7.49
2022-11-20T06:14:14.347Z,-7.43
2022-11-20T06:19:16.280Z,-7.49
2022-11-20T06:24:18.755Z,-7.36
2022-11-20T06:29:20.798Z,-7.56
2022-11-20T06:34:22.655Z,-7.66
2022-11-20T06:39:24.550Z,-7.56
2022-11-20T06:44:26.861Z,-7.70
2022-11-20T06:49:28.554Z,-7.70
2022-11-20T06:54:30.213Z,-7.66
2022-11-20T06:59:31.870Z,-7.57
2022-11-20T07:04:33.535Z,-7.50
2022-11-20T07:09:35.213Z,-7.04
2022-11-20T07:14:36.902Z,-7.07
2022-11-20T07:19:38.583Z,-7.08
2022-11-20T07:24:45.700Z,-7.07
2022-11-20T07:29:47.727Z,-7.12
2022-11-20T07:34:49.454Z,-6.94
2022-11-20T07:39:51.111Z,-7.01
2022-11-20T07:44:52.759Z,-6.95
2022-11-20T07:49:54.497Z,-6.68
2022-11-20T07:54:56.180Z,-6.84
2022-11-20T07:59:57.873Z,-6.51
2022-11-20T08:04:59.533Z,-6.37
2022-11-20T08:10:01.189Z,-5.97
2022-11-20T08:15:05.239Z,-6.03
2022-11-20T08:20:09.579Z,-6.04
2022-11-20T08:25:11.257Z,-6.10
2022-11-20T08:30:13.584Z,-5.77
2022-11-20T08:35:15.261Z,-5.85
2022-11-20T08:40:19.567Z,-5.31
2022-11-20T08:45:21.635Z,-5.18
2022-11-20T08:50:23.382Z,-4.88
2022-11-20T08:55:25.165Z,-4.83
2022-11-20T09:00:27.140Z,-4.51
2022-11-20T09:05:28.883Z,-4.29
2022-11-20T09:10:30.572Z,-3.27
2022-11-20T09:15:32.716Z,-3.01
2022-11-20T09:20:34.562Z,-1.98
2022-11-20T09:25:36.247Z,-0.16
2022-11-20T09:30:38.026Z,0.59
2022-11-20T09:35:39.792Z,1.77
2022-11-20T09:41:05.508Z,3.31
2022-11-20T09:46:10.303Z,2.24
2022-11-20T09:51:23.152Z,4.41
2022-11-20T09:56:26.458Z,6.04
2022-11-20T10:01:32.772Z,6.56
2022-11-20T10:07:31.499Z,6.63
2022-11-20T10:12:43.015Z,6.33
2022-11-20T10:17:56.726Z,5.98
2022-11-20T10:23:53.875Z,6.58
2022-11-20T10:29:12.774Z,8.18
2022-11-20T10:34:33.198Z,7.94
2022-11-20T10:39:50.565Z,7.45
2022-11-20T10:45:05.817Z,3.89
2022-11-20T10:50:21.886Z,4.10
2022-11-20T10:55:40.148Z,4.42
2022-11-20T11:00:41.995Z,3.65
2022-11-20T11:06:05.024Z,3.88
2022-11-20T11:11:28.978Z,3.33
2022-11-20T11:16:30.656Z,2.76
2022-11-20T11:21:32.372Z,2.72
2022-11-20T11:26:34.087Z,3.32
2022-11-20T11:31:36.371Z,2.85
2022-11-20T11:36:38.623Z,2.35
2022-11-20T11:41:40.979Z,2.14
2022-11-20T11:46:53.747Z,2.04
2022-11-20T11:52:17.947Z,1.91
2022-11-20T11:57:38.096Z,3.70
2022-11-20T12:02:45.579Z,3.32
2022-11-20T12:08:18.059Z,2.04
2022-11-20T12:13:35.046Z,1.54
2022-11-20T12:18:36.735Z,1.90
2022-11-20T12:23:57.685Z,1.95
2022-11-20T12:29:34.432Z,2.07
2022-11-20T12:35:00.292Z,2.04
2022-11-20T12:40:15.920Z,1.87
2022-11-20T12:45:46.857Z,1.52
2022-11-20T12:51:16.432Z,1.43
2022-11-20T12:56:33.484Z,1.31
2022-11-20T13:02:16.132Z,1.25
2022-11-20T13:07:19.028Z,1.37
2022-11-20T13:12:33.889Z,1.47
2022-11-20T13:17:38.217Z,1.47
2022-11-20T13:22:48.423Z,1.54
2022-11-20T13:27:50.473Z,1.80
2022-11-20T13:32:58.450Z,1.56
2022-11-20T13:38:13.554Z,1.76
2022-11-20T13:43:39.799Z,1.68
2022-11-20T13:48:44.596Z,1.50
2022-11-20T13:54:07.309Z,1.61
2022-11-20T13:59:27.927Z,1.45
2022-11-20T14:04:39.225Z,1.44
2022-11-20T14:09:51.220Z,1.39
2022-11-20T14:14:55.480Z,1.45
2022-11-20T14:20:05.448Z,1.29
2022-11-20T14:25:13.161Z,1.58
2022-11-20T14:30:20.578Z,1.37
2022-11-20T14:35:26.585Z,1.32
2022-11-20T14:40:32.398Z,1.25
2022-11-20T14:45:34.337Z,1.05
2022-11-20T14:50:36.528Z,0.81
2022-11-20T14:55:39.400Z,0.72
2022-11-20T15:00:41.144Z,0.57
2022-11-20T15:05:48.600Z,0.47
2022-11-20T15:10:52.184Z,0.43
2022-11-20T15:15:56.576Z,0.36
2022-11-20T15:21:02.233Z,0.21
2022-11-20T15:26:06.794Z,0.18
2022-11-20T15:31:12.887Z,0.03
2022-11-20T15:36:15.189Z,-0.06
2022-11-20T15:41:16.927Z,-0.10
2022-11-20T15:46:27.457Z,-0.07
2022-11-20T15:51:32.876Z,-0.19
2022-11-20T15:56:34.572Z,-0.19
2022-11-20T16:01:36.708Z,-0.29
2022-11-20T16:06:40.142Z,-0.24
2022-11-20T16:11:41.803Z,-0.37
2022-11-20T16:16:44.435Z,-0.50
2022-11-20T16:21:46.295Z,-0.57
2022-11-20T16:26:48.004Z,-0.45
2022-11-20T16:31:49.756Z,-0.42
2022-11-20T16:36:51.414Z,-0.67
2022-11-20T16:41:53.075Z,-0.84
2022-11-20T16:46:55.204Z,-0.70
2022-11-20T16:51:56.864Z,-0.46
2022-11-20T16:56:58.523Z,-0.51
2022-11-20T17:02:00.206Z,-0.96
2022-11-20T17:07:07.861Z,-1.27
2022-11-20T17:12:10.189Z,-1.47
2022-11-20T17:17:11.928Z,-1.79
2022-11-20T17:22:13.583Z,-2.23
2022-11-20T17:27:15.272Z,-2.36
2022-11-20T17:32:16.959Z,-2.29
2022-11-20T17:37:18.627Z,-2.45
2022-11-20T17:42:29.851Z,-2.62
2022-11-20T17:47:31.659Z,-2.65
2022-11-20T17:52:33.309Z,-2.79
2022-11-20T17:57:53.092Z,-2.72
2022-11-20T18:02:55.569Z,-2.97
2022-11-20T18:07:57.286Z,-2.86
2022-11-20T18:12:59.010Z,-2.88
2022-11-20T18:18:00.659Z,-2.85
2022-11-20T18:23:02.344Z,-3.07
2022-11-20T18:28:04.033Z,-3.10
2022-11-20T18:33:05.802Z,-2.92
2022-11-20T18:38:07.491Z,-2.90
2022-11-20T18:43:29.621Z,-3.01
2022-11-20T18:48:32.191Z,-2.99
2022-11-20T18:53:36.702Z,-3.25
2022-11-20T18:58:39.355Z,-3.33
2022-11-20T19:03:41.027Z,-3.24
2022-11-20T19:08:43.282Z,-3.28
2022-11-20T19:13:45.558Z,-3.26
2022-11-20T19:18:48.466Z,-3.23
2022-11-20T19:23:52.266Z,-3.50
2022-11-20T19:28:54.360Z,-3.53
2022-11-20T19:33:58.091Z,-3.47
2022-11-20T19:39:00.829Z,-3.46
2022-11-20T19:44:05.009Z,-3.55
2022-11-20T19:49:10.272Z,-3.51
2022-11-20T19:54:12.069Z,-3.44
2022-11-20T19:59:14.582Z,-3.42
2022-11-20T20:04:16.297Z,-3.39
2022-11-20T20:09:17.946Z,-3.30
2022-11-20T20:14:20.090Z,-3.40
2022-11-20T20:19:22.203Z,-2.90
2022-11-20T20:24:24.147Z,-2.96
2022-11-20T20:29:26.106Z,-2.65
2022-11-20T20:34:32.103Z,-2.31
2022-11-20T20:39:33.826Z,-2.25
2022-11-20T20:45:13.855Z,-2.24
2022-11-20T20:50:15.743Z,-1.94
2022-11-20T20:55:17.535Z,-1.80
2022-11-20T21:00:19.468Z,-2.07
2022-11-20T21:05:21.112Z,-2.02
2022-11-20T21:10:23.979Z,-2.19
2022-11-20T21:15:26.005Z,-2.18
2022-11-20T21:20:46.303Z,-2.22
2022-11-20T21:25:48.009Z,-2.06
2022-11-20T21:30:49.728Z,-1.75
2022-11-20T21:35:51.391Z,-1.62
2022-11-20T21:40:53.037Z,-1.37
2022-11-20T21:46:00.941Z,-1.20
2022-11-20T21:51:11.250Z,-1.39
2022-11-20T21:56:18.968Z,-1.62
2022-11-20T22:01:27.087Z,-1.41
2022-11-20T22:06:33.963Z,-1.42
2022-11-20T22:11:35.651Z,-1.28
2022-11-20T22:16:38.106Z,-1.31
2022-11-20T22:21:40.597Z,-1.23
2022-11-20T22:26:42.548Z,-1.09
2022-11-20T22:31:44.625Z,-1.14
2022-11-20T22:36:46.332Z,-1.07
2022-11-20T22:41:48.004Z,-1.09
2022-11-20T22:46:49.659Z,-1.07
2022-11-20T22:51:51.348Z,-1.20
2022-11-20T22:56:53.050Z,-0.97
2022-11-20T23:01:54.703Z,-0.75
2022-11-20T23:06:56.577Z,-0.65
2022-11-20T23:11:58.236Z,-0.88
2022-11-20T23:17:00.016Z,-0.83
2022-11-20T23:22:01.705Z,-0.75
2022-11-20T23:27:03.408Z,-0.77
2022-11-20T23:32:05.098Z,-0.54
2022-11-20T23:37:06.802Z,-0.71
2022-11-20T23:42:08.503Z,-0.71
2022-11-20T23:47:10.160Z,-0.86
2022-11-20T23:52:11.881Z,-0.74
2022-11-20T23:57:13.552Z,-1.03
